sensor_id;sensor_type;location;lat;lon;timestamp;temperature;humidity
20610;DHT22;10463;52.378;9.688;2022-07-11T00:00:44;27.50;30.30
20610;DHT22;10463;52.378;9.688;2022-07-11T00:03:29;27.40;30.50
20610;DHT22;10463;52.378;9.688;2022-07-11T00:06:14;27.30;30.60
20610;DHT22;10463;52.378;9.688;2022-07-11T00:08:58;27.20;30.70
20610;DHT22;10463;52.378;9.688;2022-07-11T00:11:43;27.20;31.00
20610;DHT22;10463;52.378;9.688;2022-07-11T00:14:29;27.10;31.80
20610;DHT22;10463;52.378;9.688;2022-07-11T00:17:14;27.00;31.40
20610;DHT22;10463;52.378;9.688;2022-07-11T00:19:59;26.90;31.30
20610;DHT22;10463;52.378;9.688;2022-07-11T00:22:44;26.80;31.20
20610;DHT22;10463;52.378;9.688;2022-07-11T00:25:29;26.80;31.20
20610;DHT22;10463;52.378;9.688;2022-07-11T00:28:14;26.70;31.50
20610;DHT22;10463;52.378;9.688;2022-07-11T00:31:01;26.60;31.50
20610;DHT22;10463;52.378;9.688;2022-07-11T00:33:45;26.50;31.70
20610;DHT22;10463;52.378;9.688;2022-07-11T00:36:30;26.50;32.00
20610;DHT22;10463;52.378;9.688;2022-07-11T00:39:16;26.40;32.00
20610;DHT22;10463;52.378;9.688;2022-07-11T00:42:01;26.30;32.10
20610;DHT22;10463;52.378;9.688;2022-07-11T00:44:46;26.20;32.20
20610;DHT22;10463;52.378;9.688;2022-07-11T00:47:32;26.20;32.40
20610;DHT22;10463;52.378;9.688;2022-07-11T00:50:17;26.10;32.50
20610;DHT22;10463;52.378;9.688;2022-07-11T00:53:02;26.10;32.60
20610;DHT22;10463;52.378;9.688;2022-07-11T00:55:48;26.00;32.70
20610;DHT22;10463;52.378;9.688;2022-07-11T00:58:33;25.90;32.80
20610;DHT22;10463;52.378;9.688;2022-07-11T01:01:19;25.80;32.80
20610;DHT22;10463;52.378;9.688;2022-07-11T01:04:05;25.80;33.00
20610;DHT22;10463;52.378;9.688;2022-07-11T01:06:50;25.70;33.10
20610;DHT22;10463;52.378;9.688;2022-07-11T01:09:36;25.70;33.10
20610;DHT22;10463;52.378;9.688;2022-07-11T01:12:21;25.70;33.20
20610;DHT22;10463;52.378;9.688;2022-07-11T01:15:07;25.70;33.30
20610;DHT22;10463;52.378;9.688;2022-07-11T01:17:52;25.70;33.30
20610;DHT22;10463;52.378;9.688;2022-07-11T01:20:39;25.70;34.10
20610;DHT22;10463;52.378;9.688;2022-07-11T01:23:25;25.60;33.40
20610;DHT22;10463;52.378;9.688;2022-07-11T01:26:10;25.60;33.40
20610;DHT22;10463;52.378;9.688;2022-07-11T01:28:55;25.60;33.40
20610;DHT22;10463;52.378;9.688;2022-07-11T01:31:42;25.60;33.50
20610;DHT22;10463;52.378;9.688;2022-07-11T01:34:27;25.60;33.50
20610;DHT22;10463;52.378;9.688;2022-07-11T01:37:12;25.50;33.50
20610;DHT22;10463;52.378;9.688;2022-07-11T01:39:59;25.50;33.60
20610;DHT22;10463;52.378;9.688;2022-07-11T01:42:44;25.50;33.70
20610;DHT22;10463;52.378;9.688;2022-07-11T01:45:29;25.50;33.80
20610;DHT22;10463;52.378;9.688;2022-07-11T01:48:13;25.40;33.80
20610;DHT22;10463;52.378;9.688;2022-07-11T01:50:58;25.40;33.90
20610;DHT22;10463;52.378;9.688;2022-07-11T01:53:43;25.40;33.90
20610;DHT22;10463;52.378;9.688;2022-07-11T01:56:30;25.40;34.00
20610;DHT22;10463;52.378;9.688;2022-07-11T01:59:17;25.40;34.10
20610;DHT22;10463;52.378;9.688;2022-07-11T02:02:02;25.30;34.10
20610;DHT22;10463;52.378;9.688;2022-07-11T02:04:47;25.30;34.10
20610;DHT22;10463;52.378;9.688;2022-07-11T02:07:32;25.30;34.20
20610;DHT22;10463;52.378;9.688;2022-07-11T02:10:35;25.30;34.20
20610;DHT22;10463;52.378;9.688;2022-07-11T02:13:23;25.20;34.90
20610;DHT22;10463;52.378;9.688;2022-07-11T02:16:08;25.20;34.30
20610;DHT22;10463;52.378;9.688;2022-07-11T02:18:52;25.20;34.30
20610;DHT22;10463;52.378;9.688;2022-07-11T02:21:37;25.20;34.40
20610;DHT22;10463;52.378;9.688;2022-07-11T02:24:23;25.20;34.40
20610;DHT22;10463;52.378;9.688;2022-07-11T02:27:07;25.10;34.50
20610;DHT22;10463;52.378;9.688;2022-07-11T02:29:53;25.10;34.50
20610;DHT22;10463;52.378;9.688;2022-07-11T02:32:38;25.10;34.60
20610;DHT22;10463;52.378;9.688;2022-07-11T02:35:23;25.00;34.60
20610;DHT22;10463;52.378;9.688;2022-07-11T02:38:08;25.00;34.70
20610;DHT22;10463;52.378;9.688;2022-07-11T02:40:53;25.00;34.80
20610;DHT22;10463;52.378;9.688;2022-07-11T02:43:39;24.90;34.70
20610;DHT22;10463;52.378;9.688;2022-07-11T02:46:25;24.90;34.80
20610;DHT22;10463;52.378;9.688;2022-07-11T02:49:10;24.90;35.60
20610;DHT22;10463;52.378;9.688;2022-07-11T02:51:54;24.80;34.80
20610;DHT22;10463;52.378;9.688;2022-07-11T02:54:39;24.80;34.90
20610;DHT22;10463;52.378;9.688;2022-07-11T02:57:24;24.80;35.10
20610;DHT22;10463;52.378;9.688;2022-07-11T03:00:13;24.80;35.10
20610;DHT22;10463;52.378;9.688;2022-07-11T03:02:59;24.80;35.20
20610;DHT22;10463;52.378;9.688;2022-07-11T03:05:44;24.70;35.20
20610;DHT22;10463;52.378;9.688;2022-07-11T03:08:28;24.70;35.20
20610;DHT22;10463;52.378;9.688;2022-07-11T03:11:13;24.70;35.40
20610;DHT22;10463;52.378;9.688;2022-07-11T03:13:58;24.70;35.50
20610;DHT22;10463;52.378;9.688;2022-07-11T03:16:43;24.60;35.50
20610;DHT22;10463;52.378;9.688;2022-07-11T03:19:29;24.60;35.60
20610;DHT22;10463;52.378;9.688;2022-07-11T03:22:14;24.60;35.60
20610;DHT22;10463;52.378;9.688;2022-07-11T03:25:00;24.60;35.70
20610;DHT22;10463;52.378;9.688;2022-07-11T03:27:45;24.60;35.70
20610;DHT22;10463;52.378;9.688;2022-07-11T03:30:29;24.60;35.70
20610;DHT22;10463;52.378;9.688;2022-07-11T03:33:14;24.60;35.80
20610;DHT22;10463;52.378;9.688;2022-07-11T03:36:00;24.60;35.70
20610;DHT22;10463;52.378;9.688;2022-07-11T03:38:45;24.60;35.70
20610;DHT22;10463;52.378;9.688;2022-07-11T03:41:30;24.60;35.70
20610;DHT22;10463;52.378;9.688;2022-07-11T03:44:15;24.60;35.70
20610;DHT22;10463;52.378;9.688;2022-07-11T03:46:59;24.60;35.70
20610;DHT22;10463;52.378;9.688;2022-07-11T03:49:44;24.60;35.70
20610;DHT22;10463;52.378;9.688;2022-07-11T03:52:30;24.60;35.80
20610;DHT22;10463;52.378;9.688;2022-07-11T03:55:16;24.60;35.80
20610;DHT22;10463;52.378;9.688;2022-07-11T03:58:01;24.70;35.90
20610;DHT22;10463;52.378;9.688;2022-07-11T04:00:46;24.70;35.90
20610;DHT22;10463;52.378;9.688;2022-07-11T04:03:31;24.70;35.90
20610;DHT22;10463;52.378;9.688;2022-07-11T04:06:16;24.70;35.80
20610;DHT22;10463;52.378;9.688;2022-07-11T04:09:02;24.70;35.80
20610;DHT22;10463;52.378;9.688;2022-07-11T04:11:46;24.70;35.80
20610;DHT22;10463;52.378;9.688;2022-07-11T04:14:31;24.80;35.80
20610;DHT22;10463;52.378;9.688;2022-07-11T04:17:16;24.80;35.70
20610;DHT22;10463;52.378;9.688;2022-07-11T04:20:02;24.80;35.60
20610;DHT22;10463;52.378;9.688;2022-07-11T04:22:48;24.90;35.60
20610;DHT22;10463;52.378;9.688;2022-07-11T04:25:35;24.90;35.60
20610;DHT22;10463;52.378;9.688;2022-07-11T04:28:19;24.90;35.60
20610;DHT22;10463;52.378;9.688;2022-07-11T04:31:04;25.00;35.70
20610;DHT22;10463;52.378;9.688;2022-07-11T04:33:49;25.00;35.60
20610;DHT22;10463;52.378;9.688;2022-07-11T04:36:34;25.00;35.70
20610;DHT22;10463;52.378;9.688;2022-07-11T04:39:19;25.00;35.70
20610;DHT22;10463;52.378;9.688;2022-07-11T04:42:05;25.00;35.70
20610;DHT22;10463;52.378;9.688;2022-07-11T04:44:51;25.00;35.80
20610;DHT22;10463;52.378;9.688;2022-07-11T04:47:35;25.00;35.80
20610;DHT22;10463;52.378;9.688;2022-07-11T04:50:21;25.00;35.80
20610;DHT22;10463;52.378;9.688;2022-07-11T04:53:06;25.00;36.00
20610;DHT22;10463;52.378;9.688;2022-07-11T04:55:51;24.90;35.90
20610;DHT22;10463;52.378;9.688;2022-07-11T04:58:37;25.00;36.00
20610;DHT22;10463;52.378;9.688;2022-07-11T05:01:22;24.90;36.50
20610;DHT22;10463;52.378;9.688;2022-07-11T05:04:06;25.00;35.90
20610;DHT22;10463;52.378;9.688;2022-07-11T05:06:52;25.00;35.90
20610;DHT22;10463;52.378;9.688;2022-07-11T05:09:36;25.00;35.90
20610;DHT22;10463;52.378;9.688;2022-07-11T05:12:21;25.00;36.00
20610;DHT22;10463;52.378;9.688;2022-07-11T05:15:09;25.00;35.90
20610;DHT22;10463;52.378;9.688;2022-07-11T05:17:54;25.00;35.80
20610;DHT22;10463;52.378;9.688;2022-07-11T05:20:38;25.00;35.90
20610;DHT22;10463;52.378;9.688;2022-07-11T05:23:24;25.00;35.90
20610;DHT22;10463;52.378;9.688;2022-07-11T05:26:09;25.00;35.90
20610;DHT22;10463;52.378;9.688;2022-07-11T05:28:54;25.00;35.90
20610;DHT22;10463;52.378;9.688;2022-07-11T05:31:40;25.00;35.90
20610;DHT22;10463;52.378;9.688;2022-07-11T05:34:27;25.00;36.00
20610;DHT22;10463;52.378;9.688;2022-07-11T05:37:12;25.00;36.00
20610;DHT22;10463;52.378;9.688;2022-07-11T05:39:56;24.90;35.90
20610;DHT22;10463;52.378;9.688;2022-07-11T05:42:41;24.90;35.80
20610;DHT22;10463;52.378;9.688;2022-07-11T05:45:26;24.90;35.80
20610;DHT22;10463;52.378;9.688;2022-07-11T05:48:12;24.90;35.80
20610;DHT22;10463;52.378;9.688;2022-07-11T05:50:56;24.90;35.80
20610;DHT22;10463;52.378;9.688;2022-07-11T05:53:41;24.90;35.90
20610;DHT22;10463;52.378;9.688;2022-07-11T05:56:26;24.90;35.90
20610;DHT22;10463;52.378;9.688;2022-07-11T05:59:10;24.90;35.90
20610;DHT22;10463;52.378;9.688;2022-07-11T06:01:55;24.90;35.90
20610;DHT22;10463;52.378;9.688;2022-07-11T06:04:42;24.90;35.90
20610;DHT22;10463;52.378;9.688;2022-07-11T06:07:27;24.90;35.90
20610;DHT22;10463;52.378;9.688;2022-07-11T06:10:31;24.90;35.80
20610;DHT22;10463;52.378;9.688;2022-07-11T06:13:18;24.90;35.90
20610;DHT22;10463;52.378;9.688;2022-07-11T06:16:04;24.90;35.90
20610;DHT22;10463;52.378;9.688;2022-07-11T06:18:48;24.90;36.00
20610;DHT22;10463;52.378;9.688;2022-07-11T06:21:36;24.80;35.90
20610;DHT22;10463;52.378;9.688;2022-07-11T06:24:30;24.80;35.70
20610;DHT22;10463;52.378;9.688;2022-07-11T06:27:15;24.90;35.70
20610;DHT22;10463;52.378;9.688;2022-07-11T06:29:59;24.90;35.70
20610;DHT22;10463;52.378;9.688;2022-07-11T06:32:44;24.90;35.60
20610;DHT22;10463;52.378;9.688;2022-07-11T06:35:29;25.00;35.70
20610;DHT22;10463;52.378;9.688;2022-07-11T06:38:16;25.00;35.60
20610;DHT22;10463;52.378;9.688;2022-07-11T06:41:01;25.00;35.50
20610;DHT22;10463;52.378;9.688;2022-07-11T06:43:46;25.00;35.40
20610;DHT22;10463;52.378;9.688;2022-07-11T06:46:32;25.10;35.40
20610;DHT22;10463;52.378;9.688;2022-07-11T06:49:16;25.10;35.40
20610;DHT22;10463;52.378;9.688;2022-07-11T06:52:01;25.20;35.20
20610;DHT22;10463;52.378;9.688;2022-07-11T06:54:47;25.20;35.20
20610;DHT22;10463;52.378;9.688;2022-07-11T06:57:32;25.20;35.10
20610;DHT22;10463;52.378;9.688;2022-07-11T07:00:17;25.20;35.10
20610;DHT22;10463;52.378;9.688;2022-07-11T07:03:04;25.30;35.00
20610;DHT22;10463;52.378;9.688;2022-07-11T07:05:51;25.30;35.00
20610;DHT22;10463;52.378;9.688;2022-07-11T07:08:39;25.30;34.90
20610;DHT22;10463;52.378;9.688;2022-07-11T07:11:26;25.40;34.90
20610;DHT22;10463;52.378;9.688;2022-07-11T07:14:11;25.40;34.90
20610;DHT22;10463;52.378;9.688;2022-07-11T07:16:55;25.40;34.80
20610;DHT22;10463;52.378;9.688;2022-07-11T07:19:41;25.50;34.80
20610;DHT22;10463;52.378;9.688;2022-07-11T07:22:26;25.50;34.80
20610;DHT22;10463;52.378;9.688;2022-07-11T07:25:11;25.50;34.80
20610;DHT22;10463;52.378;9.688;2022-07-11T07:27:57;25.60;34.70
20610;DHT22;10463;52.378;9.688;2022-07-11T07:30:42;25.60;34.70
20610;DHT22;10463;52.378;9.688;2022-07-11T07:33:27;25.70;34.60
20610;DHT22;10463;52.378;9.688;2022-07-11T07:36:12;25.70;34.60
20610;DHT22;10463;52.378;9.688;2022-07-11T07:38:57;25.80;34.70
20610;DHT22;10463;52.378;9.688;2022-07-11T07:41:42;25.80;34.60
20610;DHT22;10463;52.378;9.688;2022-07-11T07:44:29;25.80;34.50
20610;DHT22;10463;52.378;9.688;2022-07-11T07:47:14;25.80;34.40
20610;DHT22;10463;52.378;9.688;2022-07-11T07:49:59;25.90;34.40
20610;DHT22;10463;52.378;9.688;2022-07-11T07:52:43;25.90;34.40
20610;DHT22;10463;52.378;9.688;2022-07-11T07:55:28;25.90;34.40
20610;DHT22;10463;52.378;9.688;2022-07-11T07:58:13;26.00;34.30
20610;DHT22;10463;52.378;9.688;2022-07-11T08:00:59;26.00;34.30
20610;DHT22;10463;52.378;9.688;2022-07-11T08:04:03;26.00;34.20
20610;DHT22;10463;52.378;9.688;2022-07-11T08:06:49;26.00;34.20
20610;DHT22;10463;52.378;9.688;2022-07-11T08:09:34;26.00;34.10
20610;DHT22;10463;52.378;9.688;2022-07-11T08:12:18;26.00;34.10
20610;DHT22;10463;52.378;9.688;2022-07-11T08:15:05;26.00;34.10
20610;DHT22;10463;52.378;9.688;2022-07-11T08:17:51;26.10;34.10
20610;DHT22;10463;52.378;9.688;2022-07-11T08:20:37;26.10;34.10
20610;DHT22;10463;52.378;9.688;2022-07-11T08:23:22;26.10;34.00
20610;DHT22;10463;52.378;9.688;2022-07-11T08:26:07;26.10;34.00
20610;DHT22;10463;52.378;9.688;2022-07-11T08:28:52;26.10;34.00
20610;DHT22;10463;52.378;9.688;2022-07-11T08:31:37;26.20;34.00
20610;DHT22;10463;52.378;9.688;2022-07-11T08:34:23;26.20;34.00
20610;DHT22;10463;52.378;9.688;2022-07-11T08:37:09;26.20;33.90
20610;DHT22;10463;52.378;9.688;2022-07-11T08:39:53;26.30;33.90
20610;DHT22;10463;52.378;9.688;2022-07-11T08:42:41;26.30;33.90
20610;DHT22;10463;52.378;9.688;2022-07-11T08:45:30;26.30;33.80
20610;DHT22;10463;52.378;9.688;2022-07-11T08:48:15;26.30;33.80
20610;DHT22;10463;52.378;9.688;2022-07-11T08:51:02;26.40;33.90
20610;DHT22;10463;52.378;9.688;2022-07-11T08:53:47;26.40;33.60
20610;DHT22;10463;52.378;9.688;2022-07-11T08:56:32;26.40;33.60
20610;DHT22;10463;52.378;9.688;2022-07-11T08:59:18;26.50;33.60
20610;DHT22;10463;52.378;9.688;2022-07-11T09:02:05;26.50;33.50
20610;DHT22;10463;52.378;9.688;2022-07-11T09:04:51;26.50;33.50
20610;DHT22;10463;52.378;9.688;2022-07-11T09:07:43;26.60;33.50
20610;DHT22;10463;52.378;9.688;2022-07-11T09:10:28;26.60;33.40
20610;DHT22;10463;52.378;9.688;2022-07-11T09:13:14;26.60;33.20
20610;DHT22;10463;52.378;9.688;2022-07-11T09:16:03;26.60;33.20
20610;DHT22;10463;52.378;9.688;2022-07-11T09:18:48;26.60;33.10
20610;DHT22;10463;52.378;9.688;2022-07-11T09:21:32;26.60;32.90
20610;DHT22;10463;52.378;9.688;2022-07-11T09:24:37;26.60;33.60
20610;DHT22;10463;52.378;9.688;2022-07-11T09:27:43;26.60;32.80
20610;DHT22;10463;52.378;9.688;2022-07-11T09:30:30;26.60;32.90
20610;DHT22;10463;52.378;9.688;2022-07-11T09:33:15;26.60;32.90
20610;DHT22;10463;52.378;9.688;2022-07-11T09:36:03;26.60;32.80
20610;DHT22;10463;52.378;9.688;2022-07-11T09:38:56;26.60;32.80
20610;DHT22;10463;52.378;9.688;2022-07-11T09:41:43;26.60;32.80
20610;DHT22;10463;52.378;9.688;2022-07-11T09:44:30;26.60;32.80
20610;DHT22;10463;52.378;9.688;2022-07-11T09:47:18;26.60;32.80
20610;DHT22;10463;52.378;9.688;2022-07-11T09:50:05;26.70;32.60
20610;DHT22;10463;52.378;9.688;2022-07-11T09:53:05;26.70;32.60
20610;DHT22;10463;52.378;9.688;2022-07-11T09:55:50;26.70;32.60
20610;DHT22;10463;52.378;9.688;2022-07-11T09:58:36;26.70;32.60
20610;DHT22;10463;52.378;9.688;2022-07-11T10:01:21;26.70;32.60
20610;DHT22;10463;52.378;9.688;2022-07-11T10:04:08;26.70;32.60
20610;DHT22;10463;52.378;9.688;2022-07-11T10:06:53;26.70;32.60
20610;DHT22;10463;52.378;9.688;2022-07-11T10:09:39;26.60;32.60
20610;DHT22;10463;52.378;9.688;2022-07-11T10:12:26;26.60;32.60
20610;DHT22;10463;52.378;9.688;2022-07-11T10:15:16;26.60;32.60
20610;DHT22;10463;52.378;9.688;2022-07-11T10:18:11;26.60;32.70
20610;DHT22;10463;52.378;9.688;2022-07-11T10:21:06;26.60;32.60
20610;DHT22;10463;52.378;9.688;2022-07-11T10:23:58;26.60;32.70
20610;DHT22;10463;52.378;9.688;2022-07-11T10:26:50;26.60;32.80
20610;DHT22;10463;52.378;9.688;2022-07-11T10:29:41;26.60;32.70
20610;DHT22;10463;52.378;9.688;2022-07-11T10:32:30;26.60;32.80
20610;DHT22;10463;52.378;9.688;2022-07-11T10:35:15;26.60;32.70
20610;DHT22;10463;52.378;9.688;2022-07-11T10:38:05;26.60;32.80
20610;DHT22;10463;52.378;9.688;2022-07-11T10:40:51;26.60;32.90
20610;DHT22;10463;52.378;9.688;2022-07-11T10:43:38;26.60;32.80
20610;DHT22;10463;52.378;9.688;2022-07-11T10:46:26;26.60;32.80
20610;DHT22;10463;52.378;9.688;2022-07-11T10:49:25;26.60;32.80
20610;DHT22;10463;52.378;9.688;2022-07-11T10:52:21;26.60;32.80
20610;DHT22;10463;52.378;9.688;2022-07-11T10:55:32;26.60;32.70
20610;DHT22;10463;52.378;9.688;2022-07-11T10:58:23;26.60;32.80
20610;DHT22;10463;52.378;9.688;2022-07-11T11:01:11;26.70;32.80
20610;DHT22;10463;52.378;9.688;2022-07-11T11:04:45;26.60;32.80
20610;DHT22;10463;52.378;9.688;2022-07-11T11:07:38;26.70;32.90
20610;DHT22;10463;52.378;9.688;2022-07-11T11:10:51;26.70;32.90
20610;DHT22;10463;52.378;9.688;2022-07-11T11:13:36;26.60;32.80
20610;DHT22;10463;52.378;9.688;2022-07-11T11:16:22;26.60;32.80
20610;DHT22;10463;52.378;9.688;2022-07-11T11:19:07;26.60;32.90
20610;DHT22;10463;52.378;9.688;2022-07-11T11:22:01;26.60;32.80
20610;DHT22;10463;52.378;9.688;2022-07-11T11:24:57;26.60;32.80
20610;DHT22;10463;52.378;9.688;2022-07-11T11:28:02;26.60;32.90
20610;DHT22;10463;52.378;9.688;2022-07-11T11:30:53;26.60;32.90
20610;DHT22;10463;52.378;9.688;2022-07-11T11:33:38;26.60;32.90
20610;DHT22;10463;52.378;9.688;2022-07-11T11:36:25;26.60;32.90
20610;DHT22;10463;52.378;9.688;2022-07-11T11:39:21;26.70;33.70
20610;DHT22;10463;52.378;9.688;2022-07-11T11:42:11;26.70;33.00
20610;DHT22;10463;52.378;9.688;2022-07-11T11:44:58;26.70;33.00
20610;DHT22;10463;52.378;9.688;2022-07-11T11:47:47;26.70;33.00
20610;DHT22;10463;52.378;9.688;2022-07-11T11:50:33;26.70;33.00
20610;DHT22;10463;52.378;9.688;2022-07-11T11:53:18;26.70;32.90
20610;DHT22;10463;52.378;9.688;2022-07-11T11:56:15;26.70;32.90
20610;DHT22;10463;52.378;9.688;2022-07-11T11:59:02;26.70;33.00
20610;DHT22;10463;52.378;9.688;2022-07-11T12:01:48;26.70;32.90
20610;DHT22;10463;52.378;9.688;2022-07-11T12:04:36;26.80;33.00
20610;DHT22;10463;52.378;9.688;2022-07-11T12:07:27;26.70;33.00
20610;DHT22;10463;52.378;9.688;2022-07-11T12:10:14;26.70;33.00
20610;DHT22;10463;52.378;9.688;2022-07-11T12:13:01;26.70;33.00
20610;DHT22;10463;52.378;9.688;2022-07-11T12:15:46;26.70;33.10
20610;DHT22;10463;52.378;9.688;2022-07-11T12:18:52;26.70;33.10
20610;DHT22;10463;52.378;9.688;2022-07-11T12:21:38;26.70;33.20
20610;DHT22;10463;52.378;9.688;2022-07-11T12:24:25;26.70;33.20
20610;DHT22;10463;52.378;9.688;2022-07-11T12:27:17;26.70;33.30
20610;DHT22;10463;52.378;9.688;2022-07-11T12:30:04;26.70;33.30
20610;DHT22;10463;52.378;9.688;2022-07-11T12:33:03;26.70;33.30
20610;DHT22;10463;52.378;9.688;2022-07-11T12:35:57;26.70;33.30
20610;DHT22;10463;52.378;9.688;2022-07-11T12:38:48;26.70;33.30
20610;DHT22;10463;52.378;9.688;2022-07-11T12:41:36;26.70;33.40
20610;DHT22;10463;52.378;9.688;2022-07-11T12:44:23;26.70;33.40
20610;DHT22;10463;52.378;9.688;2022-07-11T12:47:29;26.70;33.40
20610;DHT22;10463;52.378;9.688;2022-07-11T12:50:15;26.70;33.40
20610;DHT22;10463;52.378;9.688;2022-07-11T12:53:01;26.70;33.40
20610;DHT22;10463;52.378;9.688;2022-07-11T12:55:45;26.70;33.50
20610;DHT22;10463;52.378;9.688;2022-07-11T12:58:38;26.70;33.50
20610;DHT22;10463;52.378;9.688;2022-07-11T13:01:25;26.70;33.70
20610;DHT22;10463;52.378;9.688;2022-07-11T13:04:37;26.70;34.30
20610;DHT22;10463;52.378;9.688;2022-07-11T13:07:27;26.70;34.90
20610;DHT22;10463;52.378;9.688;2022-07-11T13:10:31;26.60;35.00
20610;DHT22;10463;52.378;9.688;2022-07-11T13:13:35;26.60;35.00
20610;DHT22;10463;52.378;9.688;2022-07-11T13:16:20;26.60;35.90
20610;DHT22;10463;52.378;9.688;2022-07-11T13:19:05;26.60;35.30
20610;DHT22;10463;52.378;9.688;2022-07-11T13:21:51;26.60;35.40
20610;DHT22;10463;52.378;9.688;2022-07-11T13:24:35;26.60;35.30
20610;DHT22;10463;52.378;9.688;2022-07-11T13:27:20;26.60;35.30
20610;DHT22;10463;52.378;9.688;2022-07-11T13:30:06;26.70;36.00
20610;DHT22;10463;52.378;9.688;2022-07-11T13:33:01;26.70;35.40
20610;DHT22;10463;52.378;9.688;2022-07-11T13:35:46;26.70;35.30
20610;DHT22;10463;52.378;9.688;2022-07-11T13:38:33;26.80;35.30
20610;DHT22;10463;52.378;9.688;2022-07-11T13:41:18;26.80;35.20
20610;DHT22;10463;52.378;9.688;2022-07-11T13:44:03;26.80;35.00
20610;DHT22;10463;52.378;9.688;2022-07-11T13:46:48;26.80;35.00
20610;DHT22;10463;52.378;9.688;2022-07-11T13:49:32;26.80;34.90
20610;DHT22;10463;52.378;9.688;2022-07-11T13:52:17;26.80;34.80
20610;DHT22;10463;52.378;9.688;2022-07-11T13:55:05;26.80;34.90
20610;DHT22;10463;52.378;9.688;2022-07-11T13:57:52;26.90;35.10
20610;DHT22;10463;52.378;9.688;2022-07-11T14:00:37;26.90;35.20
20610;DHT22;10463;52.378;9.688;2022-07-11T14:03:22;26.90;35.40
20610;DHT22;10463;52.378;9.688;2022-07-11T14:06:08;26.90;35.60
20610;DHT22;10463;52.378;9.688;2022-07-11T14:08:52;26.90;35.70
20610;DHT22;10463;52.378;9.688;2022-07-11T14:11:38;26.90;35.70
20610;DHT22;10463;52.378;9.688;2022-07-11T14:14:23;26.90;35.70
20610;DHT22;10463;52.378;9.688;2022-07-11T14:17:08;26.90;35.90
20610;DHT22;10463;52.378;9.688;2022-07-11T14:19:52;26.90;35.80
20610;DHT22;10463;52.378;9.688;2022-07-11T14:22:37;26.90;35.90
20610;DHT22;10463;52.378;9.688;2022-07-11T14:25:22;26.90;35.90
20610;DHT22;10463;52.378;9.688;2022-07-11T14:28:09;26.90;35.90
20610;DHT22;10463;52.378;9.688;2022-07-11T14:30:54;26.90;35.90
20610;DHT22;10463;52.378;9.688;2022-07-11T14:33:39;27.00;35.90
20610;DHT22;10463;52.378;9.688;2022-07-11T14:36:23;27.00;36.00
20610;DHT22;10463;52.378;9.688;2022-07-11T14:39:11;27.00;36.00
20610;DHT22;10463;52.378;9.688;2022-07-11T14:41:56;27.00;36.20
20610;DHT22;10463;52.378;9.688;2022-07-11T14:44:42;27.00;36.20
20610;DHT22;10463;52.378;9.688;2022-07-11T14:47:27;27.00;36.30
20610;DHT22;10463;52.378;9.688;2022-07-11T14:50:12;27.00;36.20
20610;DHT22;10463;52.378;9.688;2022-07-11T14:52:56;27.00;36.20
20610;DHT22;10463;52.378;9.688;2022-07-11T14:55:41;27.00;36.20
20610;DHT22;10463;52.378;9.688;2022-07-11T14:58:26;27.00;36.10
20610;DHT22;10463;52.378;9.688;2022-07-11T15:01:12;27.00;36.10
20610;DHT22;10463;52.378;9.688;2022-07-11T15:03:56;27.00;36.20
20610;DHT22;10463;52.378;9.688;2022-07-11T15:06:41;27.00;36.20
20610;DHT22;10463;52.378;9.688;2022-07-11T15:09:44;27.00;36.10
20610;DHT22;10463;52.378;9.688;2022-07-11T15:12:48;27.00;36.10
20610;DHT22;10463;52.378;9.688;2022-07-11T15:15:33;27.00;36.10
20610;DHT22;10463;52.378;9.688;2022-07-11T15:18:19;27.00;36.10
20610;DHT22;10463;52.378;9.688;2022-07-11T15:21:05;27.00;36.30
20610;DHT22;10463;52.378;9.688;2022-07-11T15:23:51;27.00;36.40
20610;DHT22;10463;52.378;9.688;2022-07-11T15:26:36;27.00;36.30
20610;DHT22;10463;52.378;9.688;2022-07-11T15:29:20;27.00;36.50
20610;DHT22;10463;52.378;9.688;2022-07-11T15:32:06;27.00;36.50
20610;DHT22;10463;52.378;9.688;2022-07-11T15:34:53;27.00;36.40
20610;DHT22;10463;52.378;9.688;2022-07-11T15:37:37;27.00;36.40
20610;DHT22;10463;52.378;9.688;2022-07-11T15:40:22;27.00;36.50
20610;DHT22;10463;52.378;9.688;2022-07-11T15:43:07;27.00;36.50
20610;DHT22;10463;52.378;9.688;2022-07-11T15:45:52;27.00;36.60
20610;DHT22;10463;52.378;9.688;2022-07-11T15:48:37;27.00;36.60
20610;DHT22;10463;52.378;9.688;2022-07-11T15:51:24;27.00;36.70
20610;DHT22;10463;52.378;9.688;2022-07-11T15:54:09;27.00;36.80
20610;DHT22;10463;52.378;9.688;2022-07-11T15:56:54;27.00;36.90
20610;DHT22;10463;52.378;9.688;2022-07-11T15:59:40;27.00;36.90
20610;DHT22;10463;52.378;9.688;2022-07-11T16:02:25;27.00;37.00
20610;DHT22;10463;52.378;9.688;2022-07-11T16:05:10;27.00;37.00
20610;DHT22;10463;52.378;9.688;2022-07-11T16:07:56;26.90;37.00
20610;DHT22;10463;52.378;9.688;2022-07-11T16:10:41;26.90;37.10
20610;DHT22;10463;52.378;9.688;2022-07-11T16:13:26;26.90;37.00
20610;DHT22;10463;52.378;9.688;2022-07-11T16:16:11;26.90;37.10
20610;DHT22;10463;52.378;9.688;2022-07-11T16:18:55;26.90;37.10
20610;DHT22;10463;52.378;9.688;2022-07-11T16:21:40;26.90;37.10
20610;DHT22;10463;52.378;9.688;2022-07-11T16:24:27;26.90;37.10
20610;DHT22;10463;52.378;9.688;2022-07-11T16:27:13;26.90;37.10
20610;DHT22;10463;52.378;9.688;2022-07-11T16:29:58;26.90;37.20
20610;DHT22;10463;52.378;9.688;2022-07-11T16:32:42;26.90;37.20
20610;DHT22;10463;52.378;9.688;2022-07-11T16:35:27;26.90;37.10
20610;DHT22;10463;52.378;9.688;2022-07-11T16:38:12;27.00;37.20
20610;DHT22;10463;52.378;9.688;2022-07-11T16:40:58;27.00;37.20
20610;DHT22;10463;52.378;9.688;2022-07-11T16:44:02;27.00;37.20
20610;DHT22;10463;52.378;9.688;2022-07-11T16:46:46;27.00;37.10
20610;DHT22;10463;52.378;9.688;2022-07-11T16:49:31;27.00;37.10
20610;DHT22;10463;52.378;9.688;2022-07-11T16:52:16;27.00;37.10
20610;DHT22;10463;52.378;9.688;2022-07-11T16:55:01;27.00;37.10
20610;DHT22;10463;52.378;9.688;2022-07-11T16:57:47;27.00;37.10
20610;DHT22;10463;52.378;9.688;2022-07-11T17:00:32;27.00;37.20
20610;DHT22;10463;52.378;9.688;2022-07-11T17:03:17;27.00;37.30
20610;DHT22;10463;52.378;9.688;2022-07-11T17:06:02;27.00;37.30
20610;DHT22;10463;52.378;9.688;2022-07-11T17:08:48;27.00;37.30
20610;DHT22;10463;52.378;9.688;2022-07-11T17:11:34;27.00;37.40
20610;DHT22;10463;52.378;9.688;2022-07-11T17:14:20;27.00;37.40
20610;DHT22;10463;52.378;9.688;2022-07-11T17:17:05;26.90;37.30
20610;DHT22;10463;52.378;9.688;2022-07-11T17:19:51;27.00;37.40
20610;DHT22;10463;52.378;9.688;2022-07-11T17:22:36;27.00;37.50
20610;DHT22;10463;52.378;9.688;2022-07-11T17:25:21;27.00;37.50
20610;DHT22;10463;52.378;9.688;2022-07-11T17:28:06;26.90;37.40
20610;DHT22;10463;52.378;9.688;2022-07-11T17:30:53;27.00;37.50
20610;DHT22;10463;52.378;9.688;2022-07-11T17:33:38;27.00;37.40